Time;durP1;ratioP1;P1;durP2;ratioP2;P2;SDS_P1;SDS_P2;PMS_P1;PMS_P2;Temp;Humidity;BMP_temperature;BMP_pressure;BME280_temperature;BME280_humidity;BME280_pressure;Samples;Min_cycle;Max_cycle;Signal;HPM_P1;HPM_P2
2023/09/27 00:00:36;;;;;;;7.32;2.53;;;16.00;72.80;;;;;;5054726;28;20032;-71
2023/09/27 00:03:03;;;;;;;7.38;2.00;;;16.00;72.70;;;;;;5045332;28;20036;-68
2023/09/27 00:05:31;;;;;;;7.03;2.50;;;16.00;72.80;;;;;;5052937;28;20081;-71
2023/09/27 00:07:57;;;;;;;4.57;1.77;;;16.00;72.80;;;;;;5062491;28;20039;-66
2023/09/27 00:10:23;;;;;;;7.90;2.60;;;16.00;72.80;;;;;;5054125;28;20036;-68
2023/09/27 00:12:50;;;;;;;7.18;2.53;;;16.00;72.80;;;;;;5060110;28;20035;-67
2023/09/27 00:15:16;;;;;;;5.50;2.28;;;16.00;72.90;;;;;;5049663;28;20523;-66
2023/09/27 00:17:43;;;;;;;9.13;3.03;;;15.90;72.70;;;;;;5060582;28;20029;-66
2023/09/27 00:20:13;;;;;;;7.35;2.17;;;15.90;72.80;;;;;;5062671;28;20033;-69
2023/09/27 00:22:39;;;;;;;9.20;2.88;;;15.90;72.80;;;;;;5062012;28;20033;-69
2023/09/27 00:25:08;;;;;;;6.18;1.90;;;15.90;72.80;;;;;;5060878;28;20035;-72
2023/09/27 00:27:36;;;;;;;6.15;2.47;;;15.90;72.90;;;;;;5059273;28;20035;-70
2023/09/27 00:30:07;;;;;;;7.35;2.38;;;15.90;72.90;;;;;;5055124;28;20033;-67
2023/09/27 00:32:33;;;;;;;5.97;2.38;;;15.90;72.90;;;;;;5052579;28;20036;-69
2023/09/27 00:35:01;;;;;;;5.95;2.20;;;15.80;72.70;;;;;;5062070;28;20032;-67
2023/09/27 00:37:27;;;;;;;7.75;2.70;;;15.80;72.80;;;;;;5055809;28;20078;-67
2023/09/27 00:39:57;;;;;;;6.15;2.10;;;15.80;72.90;;;;;;5063387;28;20040;-69
2023/09/27 00:42:23;;;;;;;5.60;1.73;;;15.80;72.80;;;;;;5058538;28;20044;-68
2023/09/27 00:44:50;;;;;;;7.60;2.25;;;15.80;72.80;;;;;;5053587;28;20041;-69
2023/09/27 00:47:17;;;;;;;6.15;2.03;;;15.80;72.80;;;;;;5057188;28;20504;-69
2023/09/27 00:49:44;;;;;;;5.78;2.15;;;15.80;72.90;;;;;;5055263;28;20120;-69
2023/09/27 00:52:12;;;;;;;6.93;2.50;;;15.80;72.90;;;;;;5057462;28;20017;-69
2023/09/27 00:54:38;;;;;;;6.65;1.88;;;15.80;72.90;;;;;;5052386;28;20052;-69
2023/09/27 00:57:05;;;;;;;5.40;2.10;;;15.80;72.90;;;;;;5057022;28;20513;-67
2023/09/27 00:59:31;;;;;;;6.47;2.00;;;15.80;73.00;;;;;;5050314;28;20417;-69
2023/09/27 01:01:57;;;;;;;3.60;2.03;;;15.80;72.90;;;;;;5054364;28;20035;-68
2023/09/27 01:04:23;;;;;;;5.70;2.42;;;15.80;73.00;;;;;;5055803;28;20036;-67
2023/09/27 01:06:50;;;;;;;5.10;1.88;;;15.80;73.00;;;;;;5049719;28;20552;-67
2023/09/27 01:09:17;;;;;;;3.83;1.80;;;15.80;73.00;;;;;;5051997;28;20036;-68
2023/09/27 01:11:46;;;;;;;8.05;2.30;;;15.80;73.00;;;;;;5055183;28;20115;-67
2023/09/27 01:14:13;;;;;;;4.88;2.00;;;15.80;73.00;;;;;;5053593;28;20044;-68
2023/09/27 01:16:39;;;;;;;11.40;4.30;;;15.80;73.00;;;;;;5059066;28;20037;-67
2023/09/27 01:19:05;;;;;;;6.60;2.58;;;15.80;73.00;;;;;;5060260;28;20036;-67
2023/09/27 01:21:31;;;;;;;7.60;2.35;;;15.80;73.10;;;;;;5049544;28;20282;-67
2023/09/27 01:23:58;;;;;;;6.00;2.00;;;15.80;73.10;;;;;;5044132;28;20725;-67
2023/09/27 01:26:25;;;;;;;4.72;1.58;;;15.70;72.90;;;;;;5058005;28;20409;-66
2023/09/27 01:28:51;;;;;;;5.30;1.55;;;15.70;73.00;;;;;;5054623;28;20579;-71
2023/09/27 01:31:18;;;;;;;5.68;1.98;;;15.70;73.00;;;;;;5055311;28;20060;-68
2023/09/27 01:33:44;;;;;;;5.75;1.65;;;15.70;73.00;;;;;;5051728;28;20040;-68
2023/09/27 01:36:11;;;;;;;6.45;2.22;;;15.70;73.00;;;;;;5054751;28;20029;-67
2023/09/27 01:38:38;;;;;;;5.35;2.13;;;15.70;73.00;;;;;;5043471;28;20033;-69
2023/09/27 01:41:04;;;;;;;6.13;1.83;;;15.70;73.10;;;;;;5049056;28;20058;-70
2023/09/27 01:43:31;;;;;;;7.05;1.88;;;15.70;73.10;;;;;;5055045;28;20082;-67
2023/09/27 01:45:57;;;;;;;5.13;1.50;;;15.70;73.10;;;;;;5059498;28;20028;-70
2023/09/27 01:48:23;;;;;;;6.32;1.98;;;15.70;73.20;;;;;;5059986;28;20098;-68
2023/09/27 01:50:49;;;;;;;5.80;2.10;;;15.70;73.20;;;;;;5044515;28;20500;-70
2023/09/27 01:53:15;;;;;;;5.07;1.65;;;15.70;73.20;;;;;;5041327;28;20461;-76
2023/09/27 01:55:41;;;;;;;5.60;1.80;;;15.70;73.20;;;;;;5042720;28;20116;-68
2023/09/27 01:58:07;;;;;;;5.45;1.65;;;15.70;73.20;;;;;;5050764;28;20056;-70
2023/09/27 02:00:35;;;;;;;4.93;1.70;;;15.70;73.20;;;;;;5041364;28;20040;-71
2023/09/27 02:03:02;;;;;;;5.25;1.35;;;15.70;73.30;;;;;;5042622;28;20021;-72
2023/09/27 02:05:30;;;;;;;4.90;2.28;;;15.70;73.30;;;;;;5045899;28;20074;-70
2023/09/27 02:07:56;;;;;;;4.88;1.83;;;15.70;73.30;;;;;;5049229;28;20543;-72
2023/09/27 02:10:23;;;;;;;4.25;1.67;;;15.70;73.30;;;;;;5033658;28;20043;-70
2023/09/27 02:12:49;;;;;;;3.90;1.60;;;15.70;73.30;;;;;;5040915;28;20033;-72
2023/09/27 02:15:15;;;;;;;3.22;1.80;;;15.70;73.30;;;;;;5055636;28;20055;-69
2023/09/27 02:17:42;;;;;;;6.90;2.55;;;15.60;73.20;;;;;;5045885;28;20052;-69
2023/09/27 02:20:14;;;;;;;9.90;2.00;;;15.60;73.20;;;;;;5039869;28;20172;-71
2023/09/27 02:22:41;;;;;;;6.85;3.03;;;15.60;73.20;;;;;;5056055;28;20433;-68
2023/09/27 02:25:09;;;;;;;3.88;1.80;;;15.60;73.20;;;;;;5041735;28;20041;-75
2023/09/27 02:27:40;;;;;;;6.43;2.58;;;15.60;73.30;;;;;;5041304;28;20121;-75
2023/09/27 02:30:11;;;;;;;6.60;2.22;;;15.50;73.10;;;;;;5041423;28;20033;-80
2023/09/27 02:32:38;;;;;;;5.20;1.63;;;15.50;73.20;;;;;;5045064;28;20040;-72
2023/09/27 02:35:04;;;;;;;8.07;1.95;;;15.50;73.20;;;;;;5048063;28;20040;-70
2023/09/27 02:37:31;;;;;;;8.77;1.80;;;15.50;73.20;;;;;;5051430;28;20114;-76
2023/09/27 02:39:58;;;;;;;8.88;1.95;;;15.40;73.10;;;;;;5040345;28;20044;-71
2023/09/27 02:42:25;;;;;;;4.95;2.13;;;15.40;73.10;;;;;;5044313;28;20557;-75
2023/09/27 02:44:53;;;;;;;6.13;2.10;;;15.40;73.70;;;;;;5040718;28;20100;-68
2023/09/27 02:47:18;;;;;;;5.20;2.22;;;15.40;73.20;;;;;;5051435;28;20029;-71
2023/09/27 02:49:44;;;;;;;8.00;2.40;;;15.40;73.20;;;;;;5051954;28;20041;-78
2023/09/27 02:52:11;;;;;;;9.57;2.78;;;15.30;73.10;;;;;;5051152;28;20551;-73
2023/09/27 02:54:37;;;;;;;4.32;1.58;;;15.30;73.10;;;;;;5043761;28;20041;-77
2023/09/27 02:57:03;;;;;;;5.82;2.03;;;15.30;73.10;;;;;;5053302;28;20035;-68
2023/09/27 02:59:29;;;;;;;7.22;2.38;;;15.40;73.30;;;;;;5055943;28;20136;-72
2023/09/27 03:01:56;;;;;;;4.18;1.90;;;15.30;73.20;;;;;;5051771;28;20033;-73
2023/09/27 03:04:22;;;;;;;4.82;1.98;;;15.30;73.20;;;;;;5051437;28;20036;-68
2023/09/27 03:06:49;;;;;;;6.93;2.22;;;15.30;73.20;;;;;;5059840;28;20901;-67
2023/09/27 03:09:16;;;;;;;6.13;2.03;;;15.30;73.20;;;;;;5067147;28;20051;-73
2023/09/27 03:11:43;;;;;;;4.50;1.98;;;15.20;73.10;;;;;;5069310;28;20472;-69
2023/09/27 03:14:09;;;;;;;6.97;2.97;;;15.20;73.10;;;;;;5049668;28;20079;-69
2023/09/27 03:16:35;;;;;;;6.50;1.73;;;15.20;73.10;;;;;;5062684;28;20033;-67
2023/09/27 03:19:01;;;;;;;8.48;3.15;;;15.20;73.10;;;;;;5065376;28;20031;-70
2023/09/27 03:21:27;;;;;;;7.32;2.20;;;15.20;73.20;;;;;;5059590;28;20334;-71
2023/09/27 03:23:54;;;;;;;4.75;1.73;;;15.20;73.20;;;;;;5057580;28;20036;-67
2023/09/27 03:26:24;;;;;;;2.58;1.40;;;15.20;73.20;;;;;;5059380;28;20992;-72
2023/09/27 03:28:51;;;;;;;5.18;1.80;;;15.20;73.30;;;;;;5049960;28;20036;-69
2023/09/27 03:31:19;;;;;;;5.93;1.70;;;15.20;73.30;;;;;;5058983;28;20044;-67
2023/09/27 03:33:46;;;;;;;5.93;1.88;;;15.20;73.30;;;;;;5056193;28;20037;-73
2023/09/27 03:36:12;;;;;;;6.22;2.67;;;15.20;73.30;;;;;;5060181;28;20115;-67
2023/09/27 03:38:38;;;;;;;5.88;2.95;;;15.20;73.40;;;;;;5047496;28;20040;-66
2023/09/27 03:41:11;;;;;;;4.85;2.53;;;15.20;73.30;;;;;;5059080;28;20025;-67
2023/09/27 03:43:39;;;;;;;6.45;2.17;;;15.10;73.30;;;;;;5052591;28;20051;-73
2023/09/27 03:46:05;;;;;;;7.15;2.78;;;15.10;73.30;;;;;;5050060;28;20040;-73
2023/09/27 03:48:33;;;;;;;4.05;1.73;;;15.10;73.30;;;;;;5059795;28;20342;-71
2023/09/27 03:50:59;;;;;;;7.32;2.10;;;15.10;73.30;;;;;;5043520;28;20059;-68
2023/09/27 03:53:27;;;;;;;4.70;1.80;;;15.10;73.30;;;;;;5053819;28;20077;-72
2023/09/27 03:55:53;;;;;;;4.80;1.98;;;15.10;73.40;;;;;;5043940;28;20358;-73
2023/09/27 03:58:20;;;;;;;4.20;2.25;;;15.10;73.40;;;;;;5052875;28;20037;-72
2023/09/27 04:00:46;;;;;;;6.15;1.90;;;15.10;73.40;;;;;;5047198;28;20033;-71
2023/09/27 04:03:12;;;;;;;8.35;2.47;;;15.10;73.50;;;;;;5044560;28;20037;-74
2023/09/27 04:05:38;;;;;;;7.28;1.90;;;15.20;73.60;;;;;;5052693;28;20052;-70
2023/09/27 04:08:04;;;;;;;5.95;2.00;;;15.20;73.70;;;;;;5052219;28;20036;-68
2023/09/27 04:10:31;;;;;;;5.03;2.42;;;15.20;73.70;;;;;;5053329;28;20104;-76
2023/09/27 04:12:57;;;;;;;7.75;2.58;;;15.20;73.70;;;;;;5052421;28;20322;-70
2023/09/27 04:15:23;;;;;;;7.53;2.25;;;15.20;73.70;;;;;;5044438;28;20060;-72
2023/09/27 04:17:49;;;;;;;4.22;1.83;;;15.20;73.80;;;;;;5052881;28;20060;-67
2023/09/27 04:20:18;;;;;;;6.15;2.15;;;15.20;73.80;;;;;;5062301;28;20123;-74
2023/09/27 04:22:49;;;;;;;4.93;2.03;;;15.20;73.90;;;;;;5047518;28;20033;-67
2023/09/27 04:25:16;;;;;;;5.90;2.20;;;15.20;73.80;;;;;;5048406;28;20037;-68
2023/09/27 04:27:45;;;;;;;6.18;2.40;;;15.20;73.80;;;;;;5050898;28;20094;-67
2023/09/27 04:30:15;;;;;;;6.97;3.08;;;15.20;73.90;;;;;;5049820;28;20067;-70
2023/09/27 04:32:44;;;;;;;6.90;2.20;;;15.20;74.40;;;;;;5054563;28;20040;-69
2023/09/27 04:35:14;;;;;;;5.20;1.95;;;15.20;74.00;;;;;;5053000;28;20048;-68
2023/09/27 04:37:40;;;;;;;7.00;2.80;;;15.20;74.00;;;;;;5055462;28;20020;-70
2023/09/27 04:40:11;;;;;;;7.03;2.75;;;15.20;74.00;;;;;;5054196;28;20032;-73
2023/09/27 04:42:44;;;;;;;4.90;2.00;;;15.20;74.10;;;;;;5060465;28;20036;-71
2023/09/27 04:45:12;;;;;;;4.65;2.53;;;15.20;74.10;;;;;;5051773;28;20043;-68
2023/09/27 04:47:39;;;;;;;9.05;2.22;;;15.20;74.10;;;;;;5060691;28;20041;-70
2023/09/27 04:50:10;;;;;;;10.05;2.72;;;15.20;74.20;;;;;;5056099;28;20044;-69
2023/09/27 04:52:37;;;;;;;5.55;2.13;;;15.20;74.20;;;;;;5052228;28;20381;-70
2023/09/27 04:55:04;;;;;;;4.22;2.00;;;15.20;74.20;;;;;;5025210;28;20078;-69
2023/09/27 04:57:30;;;;;;;5.35;2.80;;;15.30;74.50;;;;;;5060701;28;20090;-71
2023/09/27 04:59:55;;;;;;;5.72;2.30;;;15.30;74.50;;;;;;5049617;28;20056;-73
2023/09/27 05:02:21;;;;;;;6.40;2.50;;;15.30;74.60;;;;;;5056327;28;20116;-68
2023/09/27 05:04:47;;;;;;;5.93;2.58;;;15.30;74.60;;;;;;5059101;28;20454;-69
2023/09/27 05:07:19;;;;;;;3.92;1.73;;;15.30;74.60;;;;;;5063030;28;20493;-68
2023/09/27 05:09:46;;;;;;;5.07;2.30;;;15.30;74.60;;;;;;5048991;28;20066;-69
2023/09/27 05:12:13;;;;;;;6.38;2.58;;;15.40;74.80;;;;;;5054426;28;20032;-70
2023/09/27 05:14:40;;;;;;;6.97;2.83;;;15.40;74.90;;;;;;5053057;28;20496;-73
2023/09/27 05:17:07;;;;;;;4.55;2.75;;;15.40;74.90;;;;;;5049348;28;20032;-73
2023/09/27 05:19:33;;;;;;;6.45;2.83;;;15.40;75.00;;;;;;5062528;28;20037;-68
2023/09/27 05:21:59;;;;;;;7.18;3.53;;;15.40;75.00;;;;;;5055263;28;20095;-72
2023/09/27 05:24:25;;;;;;;4.35;2.58;;;15.40;75.10;;;;;;5061745;28;20036;-73
2023/09/27 05:26:51;;;;;;;6.93;3.83;;;15.40;75.10;;;;;;5051282;28;20036;-69
2023/09/27 05:29:17;;;;;;;5.43;2.55;;;15.40;75.10;;;;;;5070617;28;20036;-68
2023/09/27 05:31:43;;;;;;;5.47;2.30;;;15.40;75.20;;;;;;5058011;28;20032;-70
2023/09/27 05:34:09;;;;;;;6.28;2.47;;;15.40;75.20;;;;;;5044005;28;20295;-69
2023/09/27 05:36:36;;;;;;;5.80;2.70;;;15.40;75.30;;;;;;5066246;28;20032;-76
2023/09/27 05:39:08;;;;;;;7.50;3.60;;;15.40;75.30;;;;;;5055905;28;20036;-73
2023/09/27 05:41:45;;;;;;;7.95;3.85;;;15.40;75.40;;;;;;5058234;28;20048;-73
2023/09/27 05:44:11;;;;;;;9.55;4.03;;;15.40;75.40;;;;;;5058684;28;20399;-72
2023/09/27 05:46:39;;;;;;;7.47;3.53;;;15.40;75.50;;;;;;5053312;28;20043;-78
2023/09/27 05:49:09;;;;;;;9.15;3.03;;;15.50;75.70;;;;;;5059214;28;20033;-72
2023/09/27 05:51:38;;;;;;;6.78;2.67;;;15.40;75.50;;;;;;5049900;28;20123;-69
2023/09/27 05:54:05;;;;;;;8.25;3.33;;;15.40;75.60;;;;;;5051139;28;20828;-71
2023/09/27 05:56:33;;;;;;;7.18;2.75;;;15.50;75.80;;;;;;5046144;28;20033;-69
2023/09/27 05:58:59;;;;;;;7.53;3.20;;;15.50;75.90;;;;;;5052642;28;20064;-72
2023/09/27 06:01:25;;;;;;;12.80;3.20;;;15.50;76.20;;;;;;5046976;28;20055;-71
2023/09/27 06:03:51;;;;;;;9.70;4.40;;;15.60;76.60;;;;;;5045966;28;20093;-69
2023/09/27 06:06:17;;;;;;;11.45;4.20;;;15.60;76.80;;;;;;5052752;28;20029;-69
2023/09/27 06:08:43;;;;;;;14.75;3.85;;;15.60;77.60;;;;;;5056358;28;20127;-72
2023/09/27 06:11:10;;;;;;;8.65;3.22;;;15.70;77.30;;;;;;5051363;28;20028;-67
2023/09/27 06:13:39;;;;;;;13.57;3.85;;;15.70;77.40;;;;;;5045145;28;20105;-67
2023/09/27 06:16:17;;;;;;;12.02;3.80;;;15.70;77.60;;;;;;5050538;28;20047;-67
2023/09/27 06:18:46;;;;;;;8.77;3.58;;;15.80;78.00;;;;;;5052439;28;20392;-68
2023/09/27 06:21:12;;;;;;;11.32;5.35;;;15.80;77.90;;;;;;5052124;28;20108;-68
2023/09/27 06:23:38;;;;;;;7.60;3.70;;;15.80;78.00;;;;;;5051056;28;20498;-67
2023/09/27 06:26:05;;;;;;;16.88;4.78;;;15.80;78.10;;;;;;5053696;28;20029;-67
2023/09/27 06:28:31;;;;;;;9.25;4.85;;;15.80;78.20;;;;;;5053594;28;20032;-68
2023/09/27 06:30:57;;;;;;;8.77;3.75;;;15.90;78.40;;;;;;5049345;28;20028;-70
2023/09/27 06:33:23;;;;;;;12.48;4.25;;;15.90;78.40;;;;;;5055842;28;20047;-68
2023/09/27 06:35:52;;;;;;;7.85;3.83;;;15.90;78.50;;;;;;5046056;28;20043;-68
2023/09/27 06:38:24;;;;;;;7.20;2.97;;;15.90;78.60;;;;;;5050114;28;20033;-67
2023/09/27 06:40:51;;;;;;;6.88;2.90;;;16.00;78.80;;;;;;5050045;28;20356;-67
2023/09/27 06:43:16;;;;;;;8.27;3.45;;;16.00;78.90;;;;;;5049678;28;20115;-68
2023/09/27 06:45:43;;;;;;;11.93;3.50;;;16.10;79.00;;;;;;5050843;28;20028;-67
2023/09/27 06:48:09;;;;;;;10.25;3.85;;;16.20;79.20;;;;;;5059906;28;20408;-69
2023/09/27 06:50:35;;;;;;;10.88;4.63;;;16.20;79.10;;;;;;5062489;28;20040;-67
2023/09/27 06:53:01;;;;;;;8.52;3.72;;;16.30;79.30;;;;;;5057998;28;20043;-68
2023/09/27 06:55:27;;;;;;;11.38;3.97;;;16.30;79.20;;;;;;5058777;28;20387;-68
2023/09/27 06:57:53;;;;;;;10.15;3.85;;;16.40;79.30;;;;;;5053247;28;20157;-68
2023/09/27 07:00:24;;;;;;;8.40;3.83;;;16.40;79.20;;;;;;5062173;28;20040;-68
2023/09/27 07:02:51;;;;;;;13.98;2.67;;;16.40;79.20;;;;;;5055324;28;20119;-68
2023/09/27 07:05:21;;;;;;;8.30;3.88;;;16.50;79.30;;;;;;5054616;28;20220;-68
2023/09/27 07:07:48;;;;;;;9.82;3.25;;;16.60;79.40;;;;;;5053653;28;20166;-70
2023/09/27 07:10:14;;;;;;;6.97;2.75;;;16.60;79.30;;;;;;5058694;28;20045;-70
2023/09/27 07:12:41;;;;;;;9.68;3.10;;;16.70;79.30;;;;;;5060344;28;20028;-68
2023/09/27 07:15:14;;;;;;;10.43;4.25;;;16.70;79.20;;;;;;5049211;28;20307;-69
2023/09/27 07:17:40;;;;;;;;;;;16.80;79.30;;;;;;5060013;28;20440;-71
2023/09/27 07:20:34;;;;;;;7.97;3.42;;;16.90;79.20;;;;;;5056587;28;19912;-67
2023/09/27 07:23:03;;;;;;;12.52;3.22;;;17.00;79.10;;;;;;5055962;28;20388;-68
2023/09/27 07:25:34;;;;;;;8.40;2.70;;;17.10;79.10;;;;;;5061098;28;20540;-68
2023/09/27 07:28:04;;;;;;;7.32;3.28;;;17.10;79.00;;;;;;5053619;28;20492;-67
2023/09/27 07:30:33;;;;;;;11.73;3.70;;;17.20;79.00;;;;;;5061246;28;20028;-67
2023/09/27 07:33:02;;;;;;;7.85;3.58;;;17.30;79.10;;;;;;5057946;28;20044;-67
2023/09/27 07:35:32;;;;;;;6.60;3.33;;;17.40;79.20;;;;;;5056443;28;20035;-68
2023/09/27 07:38:00;;;;;;;4.43;2.35;;;17.50;79.30;;;;;;5067067;28;20036;-67
2023/09/27 07:40:26;;;;;;;8.50;2.92;;;17.60;79.30;;;;;;5058679;28;20141;-68
2023/09/27 07:42:53;;;;;;;14.20;3.78;;;17.70;79.40;;;;;;5059525;28;20024;-68
2023/09/27 07:45:22;;;;;;;8.60;2.50;;;17.80;79.50;;;;;;5050549;28;20463;-68
2023/09/27 07:47:53;;;;;;;8.60;3.35;;;17.90;79.60;;;;;;5056185;28;20028;-70
2023/09/27 07:50:21;;;;;;;9.60;2.20;;;18.00;79.60;;;;;;5057526;28;20193;-68
2023/09/27 07:52:47;;;;;;;6.63;2.50;;;18.10;79.60;;;;;;5051631;28;20424;-67
2023/09/27 07:55:14;;;;;;;10.05;3.45;;;18.10;79.40;;;;;;5049637;28;20036;-70
2023/09/27 07:57:43;;;;;;;7.57;2.92;;;18.20;79.40;;;;;;5053264;28;20038;-68
2023/09/27 08:00:12;;;;;;;6.07;2.42;;;18.30;79.60;;;;;;5065054;28;20059;-69
2023/09/27 08:02:45;;;;;;;7.20;2.10;;;18.30;79.50;;;;;;5053623;28;20079;-69
2023/09/27 08:05:14;;;;;;;6.68;2.35;;;18.30;79.50;;;;;;5059037;28;20488;-68
2023/09/27 08:07:40;;;;;;;10.05;2.97;;;18.40;79.60;;;;;;5062583;28;20029;-69
2023/09/27 08:10:08;;;;;;;7.82;3.13;;;18.40;79.60;;;;;;5053106;28;20031;-68
2023/09/27 08:12:34;;;;;;;6.43;2.65;;;18.40;79.70;;;;;;5059161;28;20032;-68
2023/09/27 08:15:03;;;;;;;6.38;2.42;;;18.50;79.70;;;;;;5045663;28;20037;-69
2023/09/27 08:17:30;;;;;;;8.73;2.53;;;18.60;79.80;;;;;;5058711;28;20358;-68
2023/09/27 08:19:56;;;;;;;6.55;2.20;;;18.60;79.70;;;;;;5063100;28;20029;-68
2023/09/27 08:22:22;;;;;;;5.50;2.88;;;18.70;79.70;;;;;;5060262;28;20516;-67
2023/09/27 08:24:48;;;;;;;6.97;2.38;;;18.80;79.70;;;;;;5060016;28;20036;-68
2023/09/27 08:27:14;;;;;;;5.28;2.10;;;18.90;79.60;;;;;;5052538;28;20466;-69
2023/09/27 08:29:40;;;;;;;6.10;2.63;;;19.00;79.60;;;;;;5060343;28;20312;-68
2023/09/27 08:32:06;;;;;;;8.18;2.40;;;19.10;79.40;;;;;;5057988;28;20043;-70
2023/09/27 08:34:33;;;;;;;7.68;2.60;;;19.30;79.40;;;;;;5057999;28;20492;-68
2023/09/27 08:36:59;;;;;;;6.88;3.13;;;19.40;79.20;;;;;;5065948;28;20032;-68
2023/09/27 08:39:26;;;;;;;9.48;4.35;;;19.50;79.10;;;;;;5062274;28;20158;-68
2023/09/27 08:41:55;;;;;;;5.93;2.17;;;19.60;79.00;;;;;;5056171;28;20373;-68
2023/09/27 08:44:22;;;;;;;6.38;2.70;;;19.70;78.90;;;;;;5058262;28;20032;-67
2023/09/27 08:46:49;;;;;;;7.78;2.30;;;19.70;78.70;;;;;;5053260;28;20025;-68
2023/09/27 08:49:17;;;;;;;5.40;2.50;;;19.90;78.80;;;;;;5057372;28;20035;-69
2023/09/27 08:51:44;;;;;;;6.45;2.45;;;19.90;78.60;;;;;;5047275;28;20182;-68
2023/09/27 08:54:15;;;;;;;6.20;2.10;;;20.00;78.50;;;;;;5057902;28;20045;-70
2023/09/27 08:56:41;;;;;;;4.18;2.53;;;20.10;78.40;;;;;;5044132;28;20031;-70
2023/09/27 08:59:07;;;;;;;4.78;2.40;;;20.30;78.40;;;;;;5061582;28;20048;-68
2023/09/27 09:01:33;;;;;;;6.20;2.03;;;20.30;78.10;;;;;;5056751;28;20036;-71
2023/09/27 09:04:00;;;;;;;4.80;2.20;;;20.40;78.00;;;;;;5056598;28;20033;-70
2023/09/27 09:06:28;;;;;;;6.35;2.13;;;20.50;77.90;;;;;;5047667;28;20328;-69
2023/09/27 09:08:54;;;;;;;6.07;2.70;;;20.60;77.90;;;;;;5060067;28;20043;-69
2023/09/27 09:11:22;;;;;;;9.20;3.05;;;20.70;77.90;;;;;;5060942;28;20064;-68
2023/09/27 09:14:04;;;;;;;9.90;2.58;;;20.70;77.60;;;;;;5051572;28;20047;-68
2023/09/27 09:16:46;;;;;;;5.97;2.00;;;20.80;77.60;;;;;;5054797;28;20693;-68
2023/09/27 09:19:22;;;;;;;8.80;2.47;;;20.80;77.50;;;;;;5059139;28;20047;-69
2023/09/27 09:21:56;;;;;;;6.72;2.47;;;20.90;77.50;;;;;;5052958;28;20064;-67
2023/09/27 09:24:22;;;;;;;6.18;2.10;;;20.90;77.30;;;;;;5056502;28;20051;-68
2023/09/27 09:27:02;;;;;;;5.68;2.90;;;20.90;77.30;;;;;;5049997;28;20047;-68
2023/09/27 09:29:46;;;;;;;7.47;2.75;;;20.90;77.20;;;;;;5057503;28;20036;-71
2023/09/27 09:32:21;;;;;;;4.70;2.28;;;20.90;77.00;;;;;;5051100;28;20052;-68
2023/09/27 09:34:51;;;;;;;6.10;3.13;;;21.00;77.10;;;;;;5055516;28;20118;-70
2023/09/27 09:37:28;;;;;;;5.10;2.45;;;21.00;77.10;;;;;;5065850;28;20030;-68
2023/09/27 09:40:13;;;;;;;4.32;1.92;;;21.00;76.90;;;;;;5060672;28;20373;-68
2023/09/27 09:42:39;;;;;;;5.53;2.05;;;21.10;76.90;;;;;;5048145;28;20412;-69
2023/09/27 09:45:06;;;;;;;5.05;1.90;;;21.20;76.90;;;;;;5049798;28;20047;-69
2023/09/27 09:47:51;;;;;;;8.95;2.75;;;21.30;76.80;;;;;;5054681;28;20034;-67
2023/09/27 09:50:18;;;;;;;14.57;3.35;;;21.40;76.60;;;;;;5054619;28;20044;-68
2023/09/27 09:52:53;;;;;;;4.65;2.05;;;21.50;76.60;;;;;;5053634;28;20401;-67
2023/09/27 09:55:21;;;;;;;6.07;2.85;;;21.60;76.40;;;;;;5053845;28;20036;-67
2023/09/27 09:58:19;;;;;;;5.88;2.15;;;21.70;76.40;;;;;;5051319;28;20191;-69
2023/09/27 10:00:49;;;;;;;6.13;2.22;;;21.80;76.20;;;;;;5054057;28;20077;-68
2023/09/27 10:03:20;;;;;;;5.45;2.00;;;21.80;76.00;;;;;;5052882;28;20094;-68
2023/09/27 10:05:50;;;;;;;5.15;2.47;;;21.90;76.00;;;;;;5056235;28;20490;-68
2023/09/27 10:08:19;;;;;;;7.00;2.35;;;21.90;75.90;;;;;;5055865;28;20141;-70
2023/09/27 10:10:45;;;;;;;4.85;2.47;;;22.00;75.90;;;;;;5053205;28;20035;-69
2023/09/27 10:13:13;;;;;;;6.05;2.30;;;22.00;75.70;;;;;;5052161;28;20044;-69
2023/09/27 10:15:40;;;;;;;5.68;1.90;;;22.00;75.60;;;;;;5051635;28;20024;-70
2023/09/27 10:18:21;;;;;;;7.20;2.00;;;22.00;75.50;;;;;;5049229;28;20524;-68
2023/09/27 10:23:46;;;;;;;5.22;2.08;;;22.00;75.40;;;;;;5058904;28;20412;-68
2023/09/27 10:26:28;;;;;;;4.35;2.35;;;22.00;75.30;;;;;;5049745;28;20032;-68
2023/09/27 10:31:37;;;;;;;4.60;2.05;;;21.90;75.30;;;;;;5058209;28;20149;-69
2023/09/27 10:34:25;;;;;;;3.92;1.70;;;21.80;75.20;;;;;;5057926;28;20043;-68
2023/09/27 10:36:53;;;;;;;3.95;1.65;;;21.80;75.10;;;;;;5058218;28;20036;-68
2023/09/27 10:39:26;;;;;;;3.92;1.70;;;21.80;75.30;;;;;;5052386;28;20055;-67
2023/09/27 10:41:53;;;;;;;7.00;2.00;;;21.70;75.20;;;;;;5055992;28;20028;-67
2023/09/27 10:44:40;;;;;;;5.25;2.10;;;21.70;75.20;;;;;;5054630;28;20089;-70
2023/09/27 10:47:06;;;;;;;6.53;2.65;;;21.60;75.00;;;;;;5055252;28;20052;-68
2023/09/27 10:49:38;;;;;;;3.20;1.60;;;21.60;75.20;;;;;;5055010;28;20116;-67
2023/09/27 10:52:14;;;;;;;5.63;2.22;;;21.50;75.00;;;;;;5058248;28;20040;-66
2023/09/27 10:54:40;;;;;;;6.60;2.10;;;21.50;75.10;;;;;;5057773;28;20037;-68
2023/09/27 10:57:06;;;;;;;4.82;1.98;;;21.50;75.20;;;;;;5053786;28;20051;-67
2023/09/27 10:59:32;;;;;;;4.15;2.13;;;21.40;75.10;;;;;;5055650;28;20056;-68
2023/09/27 11:02:06;;;;;;;5.65;2.08;;;21.40;75.20;;;;;;5056016;28;20296;-68
2023/09/27 11:04:33;;;;;;;6.55;1.90;;;21.30;75.10;;;;;;5056300;28;20025;-67
2023/09/27 11:06:59;;;;;;;4.05;1.80;;;21.30;75.10;;;;;;5053560;28;20396;-69
2023/09/27 11:09:27;;;;;;;6.90;2.35;;;21.30;75.10;;;;;;5054487;28;20054;-68
2023/09/27 11:11:54;;;;;;;3.47;1.88;;;21.30;75.10;;;;;;5053660;28;20032;-70
2023/09/27 11:14:27;;;;;;;9.27;2.67;;;21.30;75.10;;;;;;5048777;28;20500;-68
2023/09/27 11:16:53;;;;;;;8.63;2.58;;;21.20;75.00;;;;;;5063567;28;20044;-68
2023/09/27 11:19:29;;;;;;;5.10;1.88;;;21.20;75.00;;;;;;5049202;28;20079;-68
2023/09/27 11:21:55;;;;;;;3.85;2.00;;;21.20;75.00;;;;;;5057385;28;20037;-69
2023/09/27 11:24:37;;;;;;;6.20;2.20;;;21.20;75.00;;;;;;5057246;28;20052;-68
2023/09/27 11:27:03;;;;;;;5.95;2.50;;;21.20;74.90;;;;;;5049793;28;20037;-70
2023/09/27 11:29:29;;;;;;;5.72;2.20;;;21.20;75.00;;;;;;5062474;28;20457;-67
2023/09/27 11:31:58;;;;;;;4.38;1.50;;;21.20;74.90;;;;;;5057222;28;20443;-69
2023/09/27 11:34:24;;;;;;;4.00;1.60;;;21.20;74.90;;;;;;5071009;28;20037;-68
2023/09/27 11:36:52;;;;;;;4.93;1.65;;;21.30;75.10;;;;;;5062152;28;20555;-68
2023/09/27 11:39:20;;;;;;;7.07;2.10;;;21.30;75.10;;;;;;5056698;28;20040;-69
2023/09/27 11:41:46;;;;;;;4.80;1.40;;;21.30;75.00;;;;;;5060216;28;20025;-68
2023/09/27 11:44:15;;;;;;;3.60;1.60;;;21.40;75.10;;;;;;5057253;28;20492;-67
2023/09/27 11:46:43;;;;;;;4.60;2.25;;;21.40;74.90;;;;;;5055743;28;20041;-67
2023/09/27 11:49:09;;;;;;;4.68;2.00;;;21.50;75.00;;;;;;5061571;28;20042;-68
2023/09/27 11:51:36;;;;;;;2.90;1.70;;;21.50;74.80;;;;;;5057980;28;20539;-68
2023/09/27 11:54:05;;;;;;;8.10;3.10;;;21.60;74.80;;;;;;5060379;28;20048;-68
2023/09/27 11:56:33;;;;;;;4.13;1.73;;;21.80;74.90;;;;;;5055048;28;20037;-68
2023/09/27 11:58:59;;;;;;;2.50;1.42;;;21.80;74.70;;;;;;5039615;28;20049;-69
2023/09/27 12:01:25;;;;;;;3.33;1.30;;;22.00;74.70;;;;;;5054397;28;20060;-67
2023/09/27 12:03:51;;;;;;;4.22;1.98;;;22.00;74.50;;;;;;5062327;28;20081;-67
2023/09/27 12:06:18;;;;;;;3.85;1.77;;;22.10;74.40;;;;;;5062696;28;20052;-67
2023/09/27 12:08:45;;;;;;;3.13;1.55;;;22.10;74.40;;;;;;5057106;28;20329;-69
2023/09/27 12:11:11;;;;;;;4.82;1.58;;;22.10;74.20;;;;;;5055422;28;20043;-68
2023/09/27 12:13:37;;;;;;;4.10;1.88;;;22.10;74.20;;;;;;5055055;28;20052;-69
2023/09/27 12:16:03;;;;;;;3.10;1.13;;;22.10;74.30;;;;;;5054158;28;20242;-69
2023/09/27 12:18:40;;;;;;;3.60;1.75;;;22.10;74.30;;;;;;5057150;28;20589;-68
2023/09/27 12:21:06;;;;;;;4.28;1.40;;;22.10;74.20;;;;;;5065295;28;20020;-68
2023/09/27 12:23:35;;;;;;;3.58;2.03;;;22.10;74.10;;;;;;5060198;28;20192;-69
2023/09/27 12:26:02;;;;;;;5.10;1.90;;;22.20;74.10;;;;;;5060532;28;20042;-68
2023/09/27 12:28:28;;;;;;;3.22;1.60;;;22.20;73.90;;;;;;5061159;28;20443;-67
2023/09/27 12:30:54;;;;;;;3.78;1.90;;;22.20;73.90;;;;;;5059832;28;20039;-68
2023/09/27 12:33:23;;;;;;;3.42;1.80;;;22.20;73.80;;;;;;5059644;28;20123;-67
2023/09/27 12:35:49;;;;;;;7.93;2.75;;;22.10;73.80;;;;;;5054518;28;20770;-69
2023/09/27 12:38:15;;;;;;;5.57;1.85;;;22.00;73.70;;;;;;5065420;28;20040;-68
2023/09/27 12:40:41;;;;;;;4.28;2.05;;;22.00;73.90;;;;;;5062717;28;20052;-67
2023/09/27 12:43:07;;;;;;;3.20;1.48;;;21.90;73.90;;;;;;5055416;28;20039;-67
2023/09/27 12:45:37;;;;;;;4.15;1.40;;;21.80;73.90;;;;;;5053338;28;20041;-67
2023/09/27 12:48:03;;;;;;;2.00;1.38;;;21.70;73.90;;;;;;5063957;28;20036;-68
2023/09/27 12:50:30;;;;;;;4.28;1.17;;;21.70;74.10;;;;;;5060886;28;20047;-66
2023/09/27 12:52:56;;;;;;;5.03;2.35;;;21.60;74.00;;;;;;5062958;28;20044;-67
2023/09/27 12:55:23;;;;;;;5.25;1.92;;;21.60;74.10;;;;;;5056541;28;20543;-67